sensor_id;sensor_type;location;lat;lon;timestamp;P1;durP1;ratioP1;P2;durP2;ratioP2
35715;SDS011;21840;44.920;8.616;2023-03-07T00:01:27;28.60;;;14.48;;
35715;SDS011;21840;44.920;8.616;2023-03-07T00:03:54;28.83;;;14.43;;
35715;SDS011;21840;44.920;8.616;2023-03-07T00:06:20;27.58;;;14.73;;
35715;SDS011;21840;44.920;8.616;2023-03-07T00:08:52;29.52;;;15.02;;
35715;SDS011;21840;44.920;8.616;2023-03-07T00:11:20;30.73;;;14.48;;
35715;SDS011;21840;44.920;8.616;2023-03-07T00:13:48;29.58;;;13.68;;
35715;SDS011;21840;44.920;8.616;2023-03-07T00:16:15;28.02;;;14.98;;
35715;SDS011;21840;44.920;8.616;2023-03-07T00:18:43;28.05;;;14.02;;
35715;SDS011;21840;44.920;8.616;2023-03-07T00:21:10;30.25;;;15.23;;
35715;SDS011;21840;44.920;8.616;2023-03-07T00:23:38;31.02;;;14.40;;
35715;SDS011;21840;44.920;8.616;2023-03-07T00:26:09;36.15;;;14.93;;
35715;SDS011;21840;44.920;8.616;2023-03-07T00:28:37;32.25;;;14.27;;
35715;SDS011;21840;44.920;8.616;2023-03-07T00:31:04;31.45;;;15.30;;
35715;SDS011;21840;44.920;8.616;2023-03-07T00:33:31;32.08;;;14.35;;
35715;SDS011;21840;44.920;8.616;2023-03-07T00:36:07;288.92;;;35.20;;
35715;SDS011;21840;44.920;8.616;2023-03-07T00:38:36;160.23;;;23.77;;
35715;SDS011;21840;44.920;8.616;2023-03-07T00:41:08;61.17;;;16.23;;
35715;SDS011;21840;44.920;8.616;2023-03-07T00:43:36;31.88;;;13.95;;
35715;SDS011;21840;44.920;8.616;2023-03-07T00:46:02;34.92;;;15.13;;
35715;SDS011;21840;44.920;8.616;2023-03-07T00:48:28;30.15;;;16.08;;
35715;SDS011;21840;44.920;8.616;2023-03-07T00:50:54;31.88;;;14.88;;
35715;SDS011;21840;44.920;8.616;2023-03-07T00:53:23;27.95;;;14.40;;
35715;SDS011;21840;44.920;8.616;2023-03-07T00:58:48;38.17;;;17.45;;
35715;SDS011;21840;44.920;8.616;2023-03-07T01:01:15;31.02;;;15.55;;
35715;SDS011;21840;44.920;8.616;2023-03-07T01:03:43;30.27;;;15.63;;
35715;SDS011;21840;44.920;8.616;2023-03-07T01:06:10;27.23;;;14.45;;
35715;SDS011;21840;44.920;8.616;2023-03-07T01:08:38;35.15;;;16.02;;
35715;SDS011;21840;44.920;8.616;2023-03-07T01:11:04;43.05;;;16.23;;
35715;SDS011;21840;44.920;8.616;2023-03-07T01:13:31;31.10;;;15.20;;
35715;SDS011;21840;44.920;8.616;2023-03-07T01:18:50;30.25;;;15.25;;
35715;SDS011;21840;44.920;8.616;2023-03-07T01:21:21;29.33;;;15.48;;
35715;SDS011;21840;44.920;8.616;2023-03-07T01:23:52;28.77;;;14.68;;
35715;SDS011;21840;44.920;8.616;2023-03-07T01:26:20;31.48;;;16.38;;
35715;SDS011;21840;44.920;8.616;2023-03-07T01:28:51;25.73;;;16.03;;
35715;SDS011;21840;44.920;8.616;2023-03-07T01:31:17;29.00;;;15.88;;
35715;SDS011;21840;44.920;8.616;2023-03-07T01:33:43;28.65;;;15.60;;
35715;SDS011;21840;44.920;8.616;2023-03-07T01:38:53;27.83;;;16.13;;
35715;SDS011;21840;44.920;8.616;2023-03-07T01:41:20;30.10;;;16.15;;
35715;SDS011;21840;44.920;8.616;2023-03-07T01:43:48;30.02;;;16.20;;
35715;SDS011;21840;44.920;8.616;2023-03-07T01:48:59;29.98;;;16.48;;
35715;SDS011;21840;44.920;8.616;2023-03-07T01:51:43;32.15;;;15.05;;
35715;SDS011;21840;44.920;8.616;2023-03-07T01:54:14;32.47;;;16.25;;
35715;SDS011;21840;44.920;8.616;2023-03-07T01:56:42;31.42;;;16.23;;
35715;SDS011;21840;44.920;8.616;2023-03-07T01:59:10;30.40;;;16.67;;
35715;SDS011;21840;44.920;8.616;2023-03-07T02:01:36;31.20;;;15.98;;
35715;SDS011;21840;44.920;8.616;2023-03-07T02:04:10;26.05;;;15.80;;
35715;SDS011;21840;44.920;8.616;2023-03-07T02:06:56;29.75;;;16.25;;
35715;SDS011;21840;44.920;8.616;2023-03-07T02:09:25;27.80;;;16.23;;
35715;SDS011;21840;44.920;8.616;2023-03-07T02:11:52;28.98;;;15.77;;
35715;SDS011;21840;44.920;8.616;2023-03-07T02:14:18;31.70;;;16.63;;
35715;SDS011;21840;44.920;8.616;2023-03-07T02:16:44;32.47;;;17.08;;
35715;SDS011;21840;44.920;8.616;2023-03-07T02:19:21;28.77;;;17.05;;
35715;SDS011;21840;44.920;8.616;2023-03-07T02:22:11;33.42;;;17.05;;
35715;SDS011;21840;44.920;8.616;2023-03-07T02:27:35;33.15;;;17.30;;
35715;SDS011;21840;44.920;8.616;2023-03-07T02:30:02;33.83;;;16.33;;
35715;SDS011;21840;44.920;8.616;2023-03-07T02:32:29;29.95;;;16.50;;
35715;SDS011;21840;44.920;8.616;2023-03-07T02:34:55;30.75;;;17.00;;
35715;SDS011;21840;44.920;8.616;2023-03-07T02:37:24;29.98;;;16.55;;
35715;SDS011;21840;44.920;8.616;2023-03-07T02:39:54;32.47;;;16.77;;
35715;SDS011;21840;44.920;8.616;2023-03-07T02:42:24;40.20;;;17.42;;
35715;SDS011;21840;44.920;8.616;2023-03-07T02:45:00;29.30;;;17.05;;
35715;SDS011;21840;44.920;8.616;2023-03-07T02:47:30;30.55;;;16.63;;
35715;SDS011;21840;44.920;8.616;2023-03-07T02:49:56;33.70;;;16.30;;
35715;SDS011;21840;44.920;8.616;2023-03-07T02:52:22;31.65;;;16.08;;
35715;SDS011;21840;44.920;8.616;2023-03-07T02:54:48;38.72;;;18.35;;
35715;SDS011;21840;44.920;8.616;2023-03-07T02:57:14;30.35;;;16.95;;
35715;SDS011;21840;44.920;8.616;2023-03-07T02:59:40;29.15;;;15.77;;
35715;SDS011;21840;44.920;8.616;2023-03-07T03:02:06;30.83;;;17.00;;
35715;SDS011;21840;44.920;8.616;2023-03-07T03:04:31;33.97;;;17.60;;
35715;SDS011;21840;44.920;8.616;2023-03-07T03:06:57;31.30;;;16.02;;
35715;SDS011;21840;44.920;8.616;2023-03-07T03:09:22;34.03;;;17.38;;
35715;SDS011;21840;44.920;8.616;2023-03-07T03:11:47;34.20;;;17.17;;
35715;SDS011;21840;44.920;8.616;2023-03-07T03:14:15;28.45;;;16.30;;
35715;SDS011;21840;44.920;8.616;2023-03-07T03:16:40;30.00;;;15.70;;
35715;SDS011;21840;44.920;8.616;2023-03-07T03:19:06;29.02;;;15.43;;
35715;SDS011;21840;44.920;8.616;2023-03-07T03:21:32;26.15;;;15.18;;
35715;SDS011;21840;44.920;8.616;2023-03-07T03:24:02;32.42;;;17.85;;
35715;SDS011;21840;44.920;8.616;2023-03-07T03:26:29;32.78;;;16.33;;
35715;SDS011;21840;44.920;8.616;2023-03-07T03:28:54;34.13;;;17.92;;
35715;SDS011;21840;44.920;8.616;2023-03-07T03:31:21;35.33;;;19.02;;
35715;SDS011;21840;44.920;8.616;2023-03-07T03:33:47;34.22;;;17.27;;
35715;SDS011;21840;44.920;8.616;2023-03-07T03:36:15;34.95;;;17.67;;
35715;SDS011;21840;44.920;8.616;2023-03-07T03:38:43;35.10;;;17.45;;
35715;SDS011;21840;44.920;8.616;2023-03-07T03:41:10;31.58;;;17.52;;
35715;SDS011;21840;44.920;8.616;2023-03-07T03:43:37;29.48;;;16.23;;
35715;SDS011;21840;44.920;8.616;2023-03-07T03:46:03;36.90;;;17.90;;
35715;SDS011;21840;44.920;8.616;2023-03-07T03:48:29;32.63;;;16.35;;
35715;SDS011;21840;44.920;8.616;2023-03-07T03:51:13;34.42;;;16.58;;
35715;SDS011;21840;44.920;8.616;2023-03-07T03:53:39;32.90;;;17.40;;
35715;SDS011;21840;44.920;8.616;2023-03-07T03:56:08;39.65;;;16.80;;
35715;SDS011;21840;44.920;8.616;2023-03-07T03:58:36;38.53;;;17.38;;
35715;SDS011;21840;44.920;8.616;2023-03-07T04:01:06;29.00;;;16.55;;
35715;SDS011;21840;44.920;8.616;2023-03-07T04:03:35;39.55;;;16.75;;
35715;SDS011;21840;44.920;8.616;2023-03-07T04:06:09;31.13;;;15.80;;
35715;SDS011;21840;44.920;8.616;2023-03-07T04:08:37;29.88;;;16.60;;
35715;SDS011;21840;44.920;8.616;2023-03-07T04:11:03;31.13;;;16.75;;
35715;SDS011;21840;44.920;8.616;2023-03-07T04:13:30;31.67;;;17.83;;
35715;SDS011;21840;44.920;8.616;2023-03-07T04:15:56;30.70;;;16.58;;
35715;SDS011;21840;44.920;8.616;2023-03-07T04:18:22;34.65;;;16.65;;
35715;SDS011;21840;44.920;8.616;2023-03-07T04:20:48;32.25;;;16.35;;
35715;SDS011;21840;44.920;8.616;2023-03-07T04:23:16;34.40;;;17.52;;
35715;SDS011;21840;44.920;8.616;2023-03-07T04:25:49;29.17;;;16.55;;
35715;SDS011;21840;44.920;8.616;2023-03-07T04:28:17;31.00;;;16.40;;
35715;SDS011;21840;44.920;8.616;2023-03-07T04:30:43;29.25;;;16.02;;
35715;SDS011;21840;44.920;8.616;2023-03-07T04:33:10;27.73;;;16.40;;
35715;SDS011;21840;44.920;8.616;2023-03-07T04:35:37;32.40;;;15.65;;
35715;SDS011;21840;44.920;8.616;2023-03-07T04:38:03;33.45;;;16.98;;
35715;SDS011;21840;44.920;8.616;2023-03-07T04:40:29;37.20;;;17.45;;
35715;SDS011;21840;44.920;8.616;2023-03-07T04:42:54;28.58;;;16.77;;
35715;SDS011;21840;44.920;8.616;2023-03-07T04:45:20;32.83;;;15.85;;
35715;SDS011;21840;44.920;8.616;2023-03-07T04:47:45;29.30;;;16.15;;
35715;SDS011;21840;44.920;8.616;2023-03-07T04:50:11;31.15;;;15.40;;
35715;SDS011;21840;44.920;8.616;2023-03-07T04:52:38;27.33;;;15.85;;
35715;SDS011;21840;44.920;8.616;2023-03-07T04:55:04;31.20;;;15.35;;
35715;SDS011;21840;44.920;8.616;2023-03-07T04:57:30;23.35;;;14.27;;
35715;SDS011;21840;44.920;8.616;2023-03-07T04:59:55;27.63;;;14.68;;
35715;SDS011;21840;44.920;8.616;2023-03-07T05:02:22;30.40;;;15.52;;
35715;SDS011;21840;44.920;8.616;2023-03-07T05:04:47;26.77;;;15.52;;
35715;SDS011;21840;44.920;8.616;2023-03-07T05:07:13;35.63;;;16.20;;
35715;SDS011;21840;44.920;8.616;2023-03-07T05:09:39;26.92;;;15.75;;
35715;SDS011;21840;44.920;8.616;2023-03-07T05:12:05;31.98;;;15.52;;
35715;SDS011;21840;44.920;8.616;2023-03-07T05:14:31;26.17;;;13.88;;
35715;SDS011;21840;44.920;8.616;2023-03-07T05:16:56;24.63;;;14.13;;
35715;SDS011;21840;44.920;8.616;2023-03-07T05:19:21;31.25;;;14.57;;
35715;SDS011;21840;44.920;8.616;2023-03-07T05:21:48;31.38;;;14.15;;
35715;SDS011;21840;44.920;8.616;2023-03-07T05:24:14;24.25;;;13.85;;
35715;SDS011;21840;44.920;8.616;2023-03-07T05:26:40;25.70;;;14.48;;
35715;SDS011;21840;44.920;8.616;2023-03-07T05:29:06;31.05;;;15.02;;
35715;SDS011;21840;44.920;8.616;2023-03-07T05:31:31;28.45;;;14.48;;
35715;SDS011;21840;44.920;8.616;2023-03-07T05:33:58;31.08;;;16.13;;
35715;SDS011;21840;44.920;8.616;2023-03-07T05:36:23;31.85;;;15.40;;
35715;SDS011;21840;44.920;8.616;2023-03-07T05:38:49;25.63;;;15.05;;
35715;SDS011;21840;44.920;8.616;2023-03-07T05:41:18;28.95;;;15.07;;
35715;SDS011;21840;44.920;8.616;2023-03-07T05:43:43;29.25;;;14.50;;
35715;SDS011;21840;44.920;8.616;2023-03-07T05:46:09;32.80;;;15.60;;
35715;SDS011;21840;44.920;8.616;2023-03-07T05:48:35;28.55;;;15.20;;
35715;SDS011;21840;44.920;8.616;2023-03-07T05:51:00;31.50;;;14.82;;
35715;SDS011;21840;44.920;8.616;2023-03-07T05:53:26;27.48;;;14.93;;
35715;SDS011;21840;44.920;8.616;2023-03-07T05:55:52;34.72;;;15.55;;
35715;SDS011;21840;44.920;8.616;2023-03-07T05:58:18;28.30;;;15.05;;
35715;SDS011;21840;44.920;8.616;2023-03-07T06:00:45;26.10;;;13.70;;
35715;SDS011;21840;44.920;8.616;2023-03-07T06:03:12;32.42;;;15.82;;
35715;SDS011;21840;44.920;8.616;2023-03-07T06:05:37;30.13;;;15.02;;
35715;SDS011;21840;44.920;8.616;2023-03-07T06:08:04;25.58;;;14.50;;
35715;SDS011;21840;44.920;8.616;2023-03-07T06:10:29;34.30;;;15.60;;
35715;SDS011;21840;44.920;8.616;2023-03-07T06:12:55;30.55;;;15.68;;
35715;SDS011;21840;44.920;8.616;2023-03-07T06:15:21;31.67;;;16.23;;
35715;SDS011;21840;44.920;8.616;2023-03-07T06:17:51;27.08;;;14.80;;
35715;SDS011;21840;44.920;8.616;2023-03-07T06:20:17;32.83;;;15.43;;
35715;SDS011;21840;44.920;8.616;2023-03-07T06:22:45;30.60;;;16.08;;
35715;SDS011;21840;44.920;8.616;2023-03-07T06:25:11;36.10;;;15.70;;
35715;SDS011;21840;44.920;8.616;2023-03-07T06:27:37;32.95;;;15.95;;
35715;SDS011;21840;44.920;8.616;2023-03-07T06:30:03;32.20;;;16.52;;
35715;SDS011;21840;44.920;8.616;2023-03-07T06:32:30;32.33;;;16.15;;
35715;SDS011;21840;44.920;8.616;2023-03-07T06:34:56;27.60;;;16.13;;
35715;SDS011;21840;44.920;8.616;2023-03-07T06:37:23;31.60;;;16.20;;
35715;SDS011;21840;44.920;8.616;2023-03-07T06:39:49;36.35;;;16.45;;
35715;SDS011;21840;44.920;8.616;2023-03-07T06:42:14;30.50;;;16.08;;
35715;SDS011;21840;44.920;8.616;2023-03-07T06:44:40;37.10;;;17.65;;
35715;SDS011;21840;44.920;8.616;2023-03-07T06:47:06;33.33;;;16.13;;
35715;SDS011;21840;44.920;8.616;2023-03-07T06:49:32;38.95;;;16.33;;
35715;SDS011;21840;44.920;8.616;2023-03-07T06:51:57;31.75;;;15.82;;
35715;SDS011;21840;44.920;8.616;2023-03-07T06:54:23;29.33;;;15.15;;
35715;SDS011;21840;44.920;8.616;2023-03-07T06:56:50;38.33;;;16.40;;
35715;SDS011;21840;44.920;8.616;2023-03-07T06:59:19;35.53;;;16.58;;
35715;SDS011;21840;44.920;8.616;2023-03-07T07:01:45;39.53;;;16.98;;
35715;SDS011;21840;44.920;8.616;2023-03-07T07:04:12;28.58;;;15.75;;
35715;SDS011;21840;44.920;8.616;2023-03-07T07:06:40;35.13;;;16.00;;
35715;SDS011;21840;44.920;8.616;2023-03-07T07:09:06;32.83;;;16.20;;
35715;SDS011;21840;44.920;8.616;2023-03-07T07:11:35;37.70;;;16.92;;
35715;SDS011;21840;44.920;8.616;2023-03-07T07:14:02;32.25;;;16.80;;
35715;SDS011;21840;44.920;8.616;2023-03-07T07:16:28;33.25;;;17.00;;
35715;SDS011;21840;44.920;8.616;2023-03-07T07:18:53;35.35;;;16.52;;
35715;SDS011;21840;44.920;8.616;2023-03-07T07:21:20;46.28;;;17.80;;
35715;SDS011;21840;44.920;8.616;2023-03-07T07:23:45;45.67;;;19.25;;
35715;SDS011;21840;44.920;8.616;2023-03-07T07:26:12;61.08;;;19.27;;
35715;SDS011;21840;44.920;8.616;2023-03-07T07:28:37;54.30;;;17.15;;
35715;SDS011;21840;44.920;8.616;2023-03-07T07:31:05;41.97;;;17.83;;
35715;SDS011;21840;44.920;8.616;2023-03-07T07:33:31;54.80;;;18.65;;
35715;SDS011;21840;44.920;8.616;2023-03-07T07:35:57;40.72;;;17.98;;
35715;SDS011;21840;44.920;8.616;2023-03-07T07:38:23;38.50;;;17.65;;
35715;SDS011;21840;44.920;8.616;2023-03-07T07:40:48;46.13;;;17.95;;
35715;SDS011;21840;44.920;8.616;2023-03-07T07:43:15;42.47;;;19.17;;
35715;SDS011;21840;44.920;8.616;2023-03-07T07:45:53;45.58;;;18.27;;
35715;SDS011;21840;44.920;8.616;2023-03-07T07:48:19;46.85;;;17.90;;
35715;SDS011;21840;44.920;8.616;2023-03-07T07:50:46;38.53;;;17.95;;
35715;SDS011;21840;44.920;8.616;2023-03-07T07:53:12;44.80;;;18.45;;
35715;SDS011;21840;44.920;8.616;2023-03-07T07:55:38;45.38;;;18.38;;
35715;SDS011;21840;44.920;8.616;2023-03-07T07:58:04;30.83;;;17.92;;
35715;SDS011;21840;44.920;8.616;2023-03-07T08:00:29;30.08;;;16.02;;
35715;SDS011;21840;44.920;8.616;2023-03-07T08:02:55;41.65;;;16.48;;
35715;SDS011;21840;44.920;8.616;2023-03-07T08:05:23;46.47;;;18.13;;
35715;SDS011;21840;44.920;8.616;2023-03-07T08:07:48;31.80;;;17.08;;
35715;SDS011;21840;44.920;8.616;2023-03-07T08:10:14;45.95;;;18.15;;
35715;SDS011;21840;44.920;8.616;2023-03-07T08:12:41;35.70;;;17.60;;
35715;SDS011;21840;44.920;8.616;2023-03-07T08:15:07;36.83;;;18.08;;
35715;SDS011;21840;44.920;8.616;2023-03-07T08:17:33;37.05;;;18.13;;
35715;SDS011;21840;44.920;8.616;2023-03-07T08:19:59;34.13;;;17.95;;
35715;SDS011;21840;44.920;8.616;2023-03-07T08:22:27;34.92;;;18.13;;
35715;SDS011;21840;44.920;8.616;2023-03-07T08:24:53;38.25;;;17.70;;
35715;SDS011;21840;44.920;8.616;2023-03-07T08:27:18;33.60;;;17.98;;
35715;SDS011;21840;44.920;8.616;2023-03-07T08:29:46;35.33;;;18.00;;
35715;SDS011;21840;44.920;8.616;2023-03-07T08:32:16;31.95;;;17.50;;
35715;SDS011;21840;44.920;8.616;2023-03-07T08:34:41;47.00;;;18.83;;
35715;SDS011;21840;44.920;8.616;2023-03-07T08:37:07;44.75;;;18.60;;
35715;SDS011;21840;44.920;8.616;2023-03-07T08:39:32;40.78;;;19.30;;
35715;SDS011;21840;44.920;8.616;2023-03-07T08:41:57;33.97;;;18.10;;
35715;SDS011;21840;44.920;8.616;2023-03-07T08:44:23;42.22;;;18.58;;
35715;SDS011;21840;44.920;8.616;2023-03-07T08:46:49;32.05;;;17.88;;
35715;SDS011;21840;44.920;8.616;2023-03-07T08:49:14;42.80;;;19.30;;
35715;SDS011;21840;44.920;8.616;2023-03-07T08:51:39;39.85;;;18.08;;
35715;SDS011;21840;44.920;8.616;2023-03-07T08:54:05;40.20;;;19.42;;
35715;SDS011;21840;44.920;8.616;2023-03-07T08:56:30;47.58;;;18.92;;
35715;SDS011;21840;44.920;8.616;2023-03-07T08:58:55;36.55;;;17.52;;
35715;SDS011;21840;44.920;8.616;2023-03-07T09:01:21;39.30;;;19.88;;
35715;SDS011;21840;44.920;8.616;2023-03-07T09:03:46;43.03;;;18.17;;
35715;SDS011;21840;44.920;8.616;2023-03-07T09:06:16;43.30;;;18.52;;
35715;SDS011;21840;44.920;8.616;2023-03-07T09:08:43;36.20;;;19.05;;
35715;SDS011;21840;44.920;8.616;2023-03-07T09:11:08;54.35;;;19.13;;
35715;SDS011;21840;44.920;8.616;2023-03-07T09:13:33;39.65;;;19.23;;
35715;SDS011;21840;44.920;8.616;2023-03-07T09:15:59;30.20;;;17.15;;
35715;SDS011;21840;44.920;8.616;2023-03-07T09:18:27;36.25;;;18.60;;
35715;SDS011;21840;44.920;8.616;2023-03-07T09:20:53;38.25;;;17.27;;
35715;SDS011;21840;44.920;8.616;2023-03-07T09:23:18;31.90;;;17.65;;
35715;SDS011;21840;44.920;8.616;2023-03-07T09:25:43;30.30;;;17.05;;
35715;SDS011;21840;44.920;8.616;2023-03-07T09:28:09;43.55;;;18.40;;
35715;SDS011;21840;44.920;8.616;2023-03-07T09:30:35;41.47;;;17.48;;
35715;SDS011;21840;44.920;8.616;2023-03-07T09:33:01;35.55;;;18.48;;
35715;SDS011;21840;44.920;8.616;2023-03-07T09:35:26;34.83;;;17.48;;
35715;SDS011;21840;44.920;8.616;2023-03-07T09:37:52;36.00;;;17.85;;
35715;SDS011;21840;44.920;8.616;2023-03-07T09:40:19;34.15;;;18.13;;
35715;SDS011;21840;44.920;8.616;2023-03-07T09:53:35;72.45;;;19.88;;
35715;SDS011;21840;44.920;8.616;2023-03-07T09:56:14;52.97;;;17.73;;
35715;SDS011;21840;44.920;8.616;2023-03-07T09:58:46;126.10;;;22.42;;
35715;SDS011;21840;44.920;8.616;2023-03-07T10:01:16;35.90;;;18.05;;
35715;SDS011;21840;44.920;8.616;2023-03-07T10:03:56;53.73;;;18.10;;
35715;SDS011;21840;44.920;8.616;2023-03-07T10:06:28;91.47;;;20.15;;
35715;SDS011;21840;44.920;8.616;2023-03-07T10:08:59;46.33;;;16.83;;
35715;SDS011;21840;44.920;8.616;2023-03-07T10:11:27;35.63;;;17.23;;
35715;SDS011;21840;44.920;8.616;2023-03-07T10:22:08;34.90;;;17.08;;
35715;SDS011;21840;44.920;8.616;2023-03-07T10:24:56;35.55;;;16.88;;
35715;SDS011;21840;44.920;8.616;2023-03-07T10:27:24;30.88;;;15.48;;
35715;SDS011;21840;44.920;8.616;2023-03-07T10:29:53;34.40;;;16.35;;
35715;SDS011;21840;44.920;8.616;2023-03-07T10:37:59;32.63;;;15.40;;
35715;SDS011;21840;44.920;8.616;2023-03-07T10:40:45;33.70;;;14.80;;
35715;SDS011;21840;44.920;8.616;2023-03-07T10:43:23;29.60;;;15.57;;
35715;SDS011;21840;44.920;8.616;2023-03-07T10:45:52;33.45;;;15.38;;
35715;SDS011;21840;44.920;8.616;2023-03-07T10:48:23;33.67;;;14.40;;
35715;SDS011;21840;44.920;8.616;2023-03-07T10:53:31;34.92;;;15.30;;
35715;SDS011;21840;44.920;8.616;2023-03-07T10:56:13;31.45;;;14.82;;
35715;SDS011;21840;44.920;8.616;2023-03-07T10:58:59;28.52;;;14.38;;
35715;SDS011;21840;44.920;8.616;2023-03-07T11:01:26;28.00;;;11.85;;
35715;SDS011;21840;44.920;8.616;2023-03-07T11:03:54;29.23;;;12.35;;
35715;SDS011;21840;44.920;8.616;2023-03-07T11:06:25;25.35;;;10.48;;
35715;SDS011;21840;44.920;8.616;2023-03-07T11:08:52;28.80;;;10.95;;
35715;SDS011;21840;44.920;8.616;2023-03-07T11:11:30;28.23;;;11.35;;
35715;SDS011;21840;44.920;8.616;2023-03-07T11:16:46;32.28;;;12.30;;
35715;SDS011;21840;44.920;8.616;2023-03-07T11:21:52;31.20;;;13.15;;
35715;SDS011;21840;44.920;8.616;2023-03-07T11:24:29;24.85;;;13.75;;
35715;SDS011;21840;44.920;8.616;2023-03-07T11:26:56;31.38;;;11.40;;
35715;SDS011;21840;44.920;8.616;2023-03-07T11:29:24;26.58;;;12.32;;
35715;SDS011;21840;44.920;8.616;2023-03-07T11:37:16;28.73;;;12.48;;
35715;SDS011;21840;44.920;8.616;2023-03-07T11:40:19;23.88;;;9.90;;
35715;SDS011;21840;44.920;8.616;2023-03-07T11:42:51;22.73;;;10.60;;
35715;SDS011;21840;44.920;8.616;2023-03-07T11:50:56;33.15;;;12.50;;
35715;SDS011;21840;44.920;8.616;2023-03-07T11:53:41;22.95;;;10.70;;
35715;SDS011;21840;44.920;8.616;2023-03-07T12:11:27;27.52;;;10.80;;
35715;SDS011;21840;44.920;8.616;2023-03-07T12:22:34;26.23;;;10.02;;
35715;SDS011;21840;44.920;8.616;2023-03-07T12:25:24;28.25;;;9.60;;
35715;SDS011;21840;44.920;8.616;2023-03-07T12:30:40;29.98;;;9.02;;
35715;SDS011;21840;44.920;8.616;2023-03-07T12:33:22;17.58;;;9.88;;
35715;SDS011;21840;44.920;8.616;2023-03-07T12:35:57;27.35;;;10.20;;
35715;SDS011;21840;44.920;8.616;2023-03-07T12:41:13;20.73;;;9.85;;
35715;SDS011;21840;44.920;8.616;2023-03-07T12:44:02;20.48;;;9.77;;
35715;SDS011;21840;44.920;8.616;2023-03-07T12:49:33;27.25;;;8.45;;
35715;SDS011;21840;44.920;8.616;2023-03-07T12:52:08;19.50;;;7.95;;
35715;SDS011;21840;44.920;8.616;2023-03-07T12:54:42;27.30;;;9.18;;
35715;SDS011;21840;44.920;8.616;2023-03-07T12:57:19;18.25;;;7.10;;
35715;SDS011;21840;44.920;8.616;2023-03-07T12:59:57;23.40;;;7.15;;
35715;SDS011;21840;44.920;8.616;2023-03-07T13:02:29;15.15;;;6.72;;
35715;SDS011;21840;44.920;8.616;2023-03-07T13:04:59;15.65;;;7.38;;
35715;SDS011;21840;44.920;8.616;2023-03-07T13:07:27;21.02;;;6.15;;
35715;SDS011;21840;44.920;8.616;2023-03-07T13:09:56;17.55;;;6.53;;
35715;SDS011;21840;44.920;8.616;2023-03-07T13:24:54;11.90;;;5.22;;
35715;SDS011;21840;44.920;8.616;2023-03-07T13:27:22;14.15;;;4.80;;
35715;SDS011;21840;44.920;8.616;2023-03-07T13:42:59;20.67;;;6.03;;
35715;SDS011;21840;44.920;8.616;2023-03-07T13:45:53;14.52;;;5.82;;
35715;SDS011;21840;44.920;8.616;2023-03-07T14:04:21;20.48;;;6.03;;
35715;SDS011;21840;44.920;8.616;2023-03-07T14:06:59;20.75;;;6.28;;
35715;SDS011;21840;44.920;8.616;2023-03-07T14:09:50;15.93;;;5.75;;
35715;SDS011;21840;44.920;8.616;2023-03-07T14:12:31;22.70;;;6.35;;
35715;SDS011;21840;44.920;8.616;2023-03-07T14:20:54;13.35;;;5.68;;
35715;SDS011;21840;44.920;8.616;2023-03-07T14:26:42;16.10;;;5.28;;
35715;SDS011;21840;44.920;8.616;2023-03-07T14:29:15;15.45;;;5.35;;
35715;SDS011;21840;44.920;8.616;2023-03-07T14:31:44;13.02;;;4.95;;
35715;SDS011;21840;44.920;8.616;2023-03-07T14:47:40;14.80;;;5.35;;
35715;SDS011;21840;44.920;8.616;2023-03-07T14:50:23;16.83;;;5.45;;
35715;SDS011;21840;44.920;8.616;2023-03-07T14:52:53;16.42;;;5.93;;
35715;SDS011;21840;44.920;8.616;2023-03-07T14:57:50;15.18;;;5.70;;
35715;SDS011;21840;44.920;8.616;2023-03-07T15:05:51;19.17;;;5.55;;
35715;SDS011;21840;44.920;8.616;2023-03-07T15:08:29;20.40;;;6.07;;
35715;SDS011;21840;44.920;8.616;2023-03-07T15:13:47;21.67;;;6.68;;
35715;SDS011;21840;44.920;8.616;2023-03-07T15:16:19;16.33;;;5.75;;
35715;SDS011;21840;44.920;8.616;2023-03-07T15:18:50;15.35;;;5.43;;
35715;SDS011;21840;44.920;8.616;2023-03-07T15:21:20;18.77;;;5.27;;
35715;SDS011;21840;44.920;8.616;2023-03-07T15:23:51;18.25;;;5.80;;
35715;SDS011;21840;44.920;8.616;2023-03-07T15:26:18;13.50;;;5.75;;
35715;SDS011;21840;44.920;8.616;2023-03-07T15:28:48;16.58;;;5.13;;
35715;SDS011;21840;44.920;8.616;2023-03-07T15:31:14;18.48;;;5.90;;
35715;SDS011;21840;44.920;8.616;2023-03-07T15:33:39;14.90;;;6.38;;
35715;SDS011;21840;44.920;8.616;2023-03-07T15:38:44;19.20;;;5.72;;
35715;SDS011;21840;44.920;8.616;2023-03-07T15:41:24;18.60;;;5.90;;
35715;SDS011;21840;44.920;8.616;2023-03-07T15:46:30;13.93;;;5.55;;
35715;SDS011;21840;44.920;8.616;2023-03-07T15:48:58;18.50;;;6.03;;
35715;SDS011;21840;44.920;8.616;2023-03-07T15:51:25;15.93;;;6.07;;
35715;SDS011;21840;44.920;8.616;2023-03-07T15:53:59;16.55;;;5.63;;
35715;SDS011;21840;44.920;8.616;2023-03-07T15:56:34;11.68;;;5.57;;
35715;SDS011;21840;44.920;8.616;2023-03-07T16:01:51;16.85;;;5.20;;
35715;SDS011;21840;44.920;8.616;2023-03-07T16:07:00;13.32;;;5.88;;
35715;SDS011;21840;44.920;8.616;2023-03-07T16:09:25;18.02;;;6.40;;
35715;SDS011;21840;44.920;8.616;2023-03-07T16:11:51;17.13;;;5.82;;
35715;SDS011;21840;44.920;8.616;2023-03-07T16:14:30;17.15;;;6.38;;
35715;SDS011;21840;44.920;8.616;2023-03-07T16:16:58;13.63;;;5.25;;
35715;SDS011;21840;44.920;8.616;2023-03-07T16:19:26;17.50;;;6.45;;
35715;SDS011;21840;44.920;8.616;2023-03-07T16:21:51;18.45;;;5.55;;
35715;SDS011;21840;44.920;8.616;2023-03-07T16:24:17;16.60;;;6.00;;
35715;SDS011;21840;44.920;8.616;2023-03-07T16:26:43;15.75;;;5.47;;
35715;SDS011;21840;44.920;8.616;2023-03-07T16:29:13;16.60;;;5.95;;
35715;SDS011;21840;44.920;8.616;2023-03-07T16:31:41;13.18;;;5.85;;
35715;SDS011;21840;44.920;8.616;2023-03-07T16:34:16;24.67;;;7.10;;
35715;SDS011;21840;44.920;8.616;2023-03-07T16:36:43;26.13;;;6.43;;
35715;SDS011;21840;44.920;8.616;2023-03-07T16:39:11;17.90;;;6.13;;
35715;SDS011;21840;44.920;8.616;2023-03-07T16:41:38;17.83;;;5.70;;
35715;SDS011;21840;44.920;8.616;2023-03-07T16:44:12;14.43;;;5.57;;
35715;SDS011;21840;44.920;8.616;2023-03-07T16:46:40;18.33;;;6.85;;
35715;SDS011;21840;44.920;8.616;2023-03-07T16:49:09;16.88;;;6.72;;
35715;SDS011;21840;44.920;8.616;2023-03-07T16:51:39;16.85;;;5.93;;
35715;SDS011;21840;44.920;8.616;2023-03-07T16:54:04;14.90;;;5.85;;
35715;SDS011;21840;44.920;8.616;2023-03-07T16:56:31;17.25;;;6.40;;
35715;SDS011;21840;44.920;8.616;2023-03-07T16:59:00;15.60;;;5.70;;
35715;SDS011;21840;44.920;8.616;2023-03-07T17:01:26;18.00;;;6.18;;
35715;SDS011;21840;44.920;8.616;2023-03-07T17:03:51;19.27;;;6.95;;
35715;SDS011;21840;44.920;8.616;2023-03-07T17:06:20;17.70;;;6.13;;
35715;SDS011;21840;44.920;8.616;2023-03-07T17:08:46;20.02;;;6.53;;
35715;SDS011;21840;44.920;8.616;2023-03-07T17:11:16;16.55;;;5.82;;
35715;SDS011;21840;44.920;8.616;2023-03-07T17:13:44;21.42;;;6.18;;
35715;SDS011;21840;44.920;8.616;2023-03-07T17:16:13;18.25;;;7.03;;
35715;SDS011;21840;44.920;8.616;2023-03-07T17:18:40;21.00;;;7.13;;
35715;SDS011;21840;44.920;8.616;2023-03-07T17:21:07;15.73;;;5.72;;
35715;SDS011;21840;44.920;8.616;2023-03-07T17:23:38;22.63;;;6.40;;
35715;SDS011;21840;44.920;8.616;2023-03-07T17:26:04;27.95;;;9.93;;
35715;SDS011;21840;44.920;8.616;2023-03-07T17:28:30;19.67;;;8.45;;